createdAt,value
2019-05-10T00:00:37.307Z,291.40
2019-05-10T00:03:07.093Z,293.83
2019-05-10T00:05:37.081Z,305.17
2019-05-10T00:11:23.028Z,297.53
2019-05-10T00:17:08.042Z,310.00
2019-05-10T00:22:40.696Z,286.17
2019-05-10T00:25:08.908Z,280.80
2019-05-10T00:30:53.453Z,297.63
2019-05-10T00:36:26.095Z,295.67
2019-05-10T00:42:10.378Z,296.17
2019-05-10T00:44:39.847Z,312.23
2019-05-10T00:50:23.016Z,304.13
2019-05-10T00:56:07.748Z,293.83
2019-05-10T01:01:51.754Z,304.50
2019-05-10T01:04:19.954Z,301.40
2019-05-10T01:09:52.192Z,302.47
2019-05-10T01:15:35.608Z,298.83
2019-05-10T01:18:03.907Z,287.80
2019-05-10T01:23:47.929Z,298.30
2019-05-10T01:29:44.111Z,291.90
2019-05-10T01:32:12.698Z,309.43
2019-05-10T01:34:41.136Z,290.10
2019-05-10T01:40:24.956Z,312.97
2019-05-10T01:45:59.236Z,288.03
2019-05-10T01:48:27.576Z,317.30
2019-05-10T01:53:59.776Z,298.40
2019-05-10T01:56:28.076Z,307.70
2019-05-10T02:02:00.773Z,301.40
2019-05-10T02:07:44.548Z,291.63
2019-05-10T02:10:13.001Z,302.90
2019-05-10T02:15:46.088Z,307.53
2019-05-10T02:18:14.345Z,311.13
2019-05-10T02:23:58.011Z,287.17
2019-05-10T02:29:31.108Z,302.40
2019-05-10T02:35:14.972Z,322.93
2019-05-10T02:37:43.305Z,313.73
2019-05-10T02:40:12.801Z,304.47
2019-05-10T02:42:41.169Z,300.37
2019-05-10T02:48:25.115Z,303.37
2019-05-10T02:50:53.509Z,298.97
2019-05-10T02:53:21.912Z,297.07
2019-05-10T02:55:50.354Z,288.23
2019-05-10T03:01:36.210Z,307.13
2019-05-10T03:04:04.557Z,287.93
2019-05-10T03:09:50.180Z,291.73
2019-05-10T03:15:35.531Z,311.63
2019-05-10T03:21:19.826Z,310.53
2019-05-10T03:27:03.912Z,289.23
2019-05-10T03:29:32.387Z,296.70
2019-05-10T03:32:00.649Z,298.93
2019-05-10T03:34:29.083Z,300.80
2019-05-10T03:36:57.406Z,295.70
2019-05-10T03:42:40.691Z,287.83
2019-05-10T03:48:25.308Z,312.63
2019-05-10T03:54:09.314Z,274.87
2019-05-10T03:56:37.524Z,307.80
2019-05-10T03:59:05.997Z,299.63
2019-05-10T04:01:34.283Z,301.57
2019-05-10T04:04:03.091Z,306.20
2019-05-10T04:06:31.837Z,296.47
2019-05-10T04:12:16.938Z,304.73
2019-05-10T04:18:12.846Z,314.20
2019-05-10T04:20:41.197Z,301.50
2019-05-10T04:26:25.624Z,305.40
2019-05-10T04:28:56.966Z,310.40
2019-05-10T04:31:25.312Z,300.23
2019-05-10T04:33:53.493Z,295.63
2019-05-10T04:36:21.648Z,335.10
2019-05-10T04:38:50.109Z,303.90
2019-05-10T04:41:18.393Z,309.53
2019-05-10T04:43:46.721Z,335.70
2019-05-10T04:46:16.334Z,309.70
2019-05-10T04:48:44.726Z,328.70
2019-05-10T04:51:12.890Z,304.30
2019-05-10T04:53:41.183Z,334.20
2019-05-10T04:56:09.397Z,302.77
2019-05-10T04:58:37.763Z,316.90
2019-05-10T05:01:05.985Z,323.67
2019-05-10T05:03:34.222Z,355.73
2019-05-10T05:06:02.601Z,306.67
2019-05-10T05:08:30.833Z,324.77
2019-05-10T05:10:59.137Z,308.90
2019-05-10T05:13:27.430Z,318.40
2019-05-10T05:15:55.750Z,319.93
2019-05-10T05:18:24.097Z,333.50
2019-05-10T05:20:52.375Z,302.37
2019-05-10T05:23:20.768Z,325.00
2019-05-10T05:25:49.126Z,299.27
2019-05-10T05:28:18.516Z,328.37
2019-05-10T05:30:47.368Z,311.40
2019-05-10T05:33:15.714Z,332.73
2019-05-10T05:35:43.891Z,311.83
2019-05-10T05:38:12.196Z,311.60
2019-05-10T05:40:40.473Z,309.40
2019-05-10T05:43:09.915Z,319.80
2019-05-10T05:45:38.451Z,337.13
2019-05-10T05:48:06.740Z,311.73
2019-05-10T05:50:34.978Z,310.27
2019-05-10T05:53:03.201Z,301.20
2019-05-10T05:55:32.274Z,327.83
2019-05-10T05:58:04.756Z,338.43
2019-05-10T06:00:30.788Z,326.93
2019-05-10T06:02:59.122Z,320.70
2019-05-10T06:05:34.187Z,347.10
2019-05-10T06:07:57.277Z,313.27
2019-05-10T06:10:25.664Z,350.60
2019-05-10T06:12:54.073Z,320.87
2019-05-10T06:15:22.992Z,344.43
2019-05-10T06:17:57.039Z,318.97
2019-05-10T06:20:22.420Z,337.23
2019-05-10T06:23:05.540Z,315.80
2019-05-10T06:25:38.086Z,339.67
2019-05-10T06:27:50.601Z,304.27
2019-05-10T06:30:19.010Z,330.10
2019-05-10T06:32:47.315Z,321.40
2019-05-10T06:35:19.457Z,321.50
2019-05-10T06:37:45.694Z,317.00
2019-05-10T06:40:13.999Z,327.63
2019-05-10T06:42:42.341Z,303.13
2019-05-10T06:45:14.717Z,314.63
2019-05-10T06:47:47.131Z,333.37
2019-05-10T06:50:11.136Z,316.27
2019-05-10T06:52:39.489Z,311.70
2019-05-10T06:55:07.997Z,314.47
2019-05-10T06:57:37.648Z,310.53
2019-05-10T07:00:08.097Z,329.23
2019-05-10T07:02:36.782Z,309.83
2019-05-10T07:05:05.591Z,317.67
2019-05-10T07:07:44.184Z,307.27
2019-05-10T07:10:15.801Z,301.33
2019-05-10T07:12:36.391Z,295.73
2019-05-10T07:15:06.342Z,305.03
2019-05-10T07:17:41.392Z,304.30
2019-05-10T07:20:06.287Z,298.33
2019-05-10T07:22:34.643Z,304.17
2019-05-10T07:25:07.185Z,304.93
2019-05-10T07:27:36.752Z,309.13
2019-05-10T07:30:03.886Z,296.53
2019-05-10T07:32:32.134Z,301.30
2019-05-10T07:35:01.130Z,314.17
2019-05-10T07:37:29.742Z,317.73
2019-05-10T07:39:58.010Z,297.17
2019-05-10T07:42:26.524Z,320.00
2019-05-10T07:44:54.920Z,293.20
2019-05-10T07:47:24.028Z,319.20
2019-05-10T07:49:53.158Z,303.03
2019-05-10T07:52:21.393Z,327.70
2019-05-10T07:54:49.677Z,296.80
2019-05-10T07:57:18.504Z,320.87
2019-05-10T07:59:50.641Z,318.93
2019-05-10T08:02:18.147Z,328.90
2019-05-10T08:04:46.432Z,319.20
2019-05-10T08:07:14.749Z,338.37
2019-05-10T08:09:45.240Z,319.87
2019-05-10T08:12:13.175Z,327.07
2019-05-10T08:14:44.385Z,301.00
2019-05-10T08:17:11.427Z,299.40
2019-05-10T08:19:40.818Z,315.07
2019-05-10T08:22:09.458Z,299.20
2019-05-10T08:24:37.861Z,311.53
2019-05-10T08:27:11.641Z,311.47
2019-05-10T08:29:36.008Z,314.37
2019-05-10T08:32:05.584Z,295.80
2019-05-10T08:34:35.523Z,305.50
2019-05-10T08:37:04.008Z,305.73
2019-05-10T08:39:43.891Z,316.23
2019-05-10T08:42:13.542Z,288.87
2019-05-10T08:44:32.885Z,314.73
2019-05-10T08:47:02.253Z,303.13
2019-05-10T08:49:41.824Z,308.27
2019-05-10T08:52:02.889Z,299.60
2019-05-10T08:54:32.826Z,291.38
2019-05-10T08:57:05.207Z,312.33
2019-05-10T08:59:31.267Z,300.57
2019-05-10T09:02:01.934Z,294.85
2019-05-10T09:04:33.438Z,313.15
2019-05-10T09:06:59.967Z,319.05
2019-05-10T09:09:33.800Z,316.07
2019-05-10T09:12:04.269Z,366.17
2019-05-10T09:14:29.357Z,327.73
2019-05-10T09:17:03.496Z,297.07
2019-05-10T09:19:39.628Z,330.40
2019-05-10T09:21:57.716Z,300.73
2019-05-10T09:24:26.115Z,318.33
2019-05-10T09:26:56.933Z,318.17
2019-05-10T09:29:27.429Z,345.77
2019-05-10T09:31:54.522Z,310.60
2019-05-10T09:34:25.971Z,331.77
2019-05-10T09:36:53.083Z,302.17
2019-05-10T09:39:24.854Z,322.17
2019-05-10T09:41:52.793Z,300.00
2019-05-10T09:44:22.879Z,308.90
2019-05-10T09:46:52.453Z,310.27
2019-05-10T09:49:23.248Z,300.80
2019-05-10T09:54:56.982Z,308.13
2019-05-10T09:57:27.711Z,323.20
2019-05-10T09:59:57.215Z,307.33
2019-05-10T10:02:32.785Z,316.23
2019-05-10T10:04:58.582Z,308.23
2019-05-10T10:07:29.316Z,312.40
2019-05-10T10:09:57.053Z,310.00
2019-05-10T10:12:25.537Z,318.53
2019-05-10T10:14:54.037Z,303.03
2019-05-10T10:17:22.275Z,329.33
2019-05-10T10:19:50.730Z,311.63
2019-05-10T10:25:40.595Z,311.73
2019-05-10T10:28:08.255Z,307.63
2019-05-10T10:30:37.437Z,310.43
2019-05-10T10:33:11.731Z,304.97
2019-05-10T10:35:37.879Z,303.87
2019-05-10T10:38:08.145Z,294.43
2019-05-10T10:40:44.351Z,300.80
2019-05-10T10:43:07.433Z,308.63
2019-05-10T10:45:37.731Z,337.73
2019-05-10T10:48:08.472Z,306.97
2019-05-10T10:50:36.868Z,295.63
2019-05-10T10:53:07.788Z,295.77
2019-05-10T10:55:39.392Z,340.40
2019-05-10T10:58:07.278Z,292.27
2019-05-10T11:00:38.814Z,310.37
2019-05-10T11:03:06.028Z,312.57
2019-05-10T11:05:34.469Z,300.10
2019-05-10T11:08:02.780Z,293.30
2019-05-10T11:10:31.753Z,311.90
2019-05-10T11:13:02.900Z,302.33
2019-05-10T11:15:35.586Z,314.67
2019-05-10T11:18:00.532Z,307.77
2019-05-10T11:20:31.540Z,327.83
2019-05-10T11:22:59.145Z,307.37
2019-05-10T11:25:27.591Z,335.07
2019-05-10T11:27:58.596Z,314.13
2019-05-10T11:30:26.921Z,323.43
2019-05-10T11:32:55.376Z,293.17
2019-05-10T11:35:28.403Z,324.52
2019-05-10T11:37:53.610Z,296.35
2019-05-10T11:40:29.844Z,309.45
2019-05-10T11:42:53.339Z,288.00
2019-05-10T11:45:26.210Z,327.27
2019-05-10T11:47:56.764Z,304.07
2019-05-10T11:50:31.293Z,324.77
2019-05-10T11:52:51.698Z,306.55
2019-05-10T11:55:21.645Z,329.68
2019-05-10T11:58:01.527Z,295.63
2019-05-10T12:00:28.397Z,246.85
2019-05-10T12:03:07.407Z,265.25
2019-05-10T12:05:26.713Z,255.15
2019-05-10T12:07:54.609Z,255.07
2019-05-10T12:15:25.312Z,253.25
2019-05-10T12:17:59.156Z,259.92
2019-05-10T12:20:38.545Z,270.37
2019-05-10T12:22:54.041Z,315.57
2019-05-10T12:25:42.076Z,312.77
2019-05-10T12:26:19.411Z,267.00
2019-05-10T12:26:31.162Z,244.68
2019-05-10T12:27:52.668Z,300.45
2019-05-10T12:30:21.578Z,343.48
2019-05-10T12:36:12.997Z,314.95
2019-05-10T12:38:38.030Z,332.12
2019-05-10T12:41:05.810Z,309.40
2019-05-10T12:43:37.131Z,320.85
2019-05-10T12:46:05.517Z,314.45
2019-05-10T12:48:35.891Z,331.77
2019-05-10T12:54:23.718Z,331.52
2019-05-10T12:56:50.349Z,312.77
2019-05-10T12:59:18.644Z,336.55
2019-05-10T13:01:47.033Z,322.17
2019-05-10T13:04:16.944Z,347.35
2019-05-10T13:06:45.410Z,327.95
2019-05-10T13:09:13.785Z,326.88
2019-05-10T13:11:42.134Z,322.00
2019-05-10T13:14:10.735Z,312.15
2019-05-10T13:16:40.114Z,344.20
2019-05-10T13:19:08.370Z,317.23
2019-05-10T13:21:36.791Z,348.07
2019-05-10T13:24:05.149Z,323.60
2019-05-10T13:26:33.477Z,314.35
2019-05-10T13:29:07.145Z,329.45
2019-05-10T13:31:31.879Z,323.95
2019-05-10T13:34:00.093Z,306.05
2019-05-10T13:36:30.557Z,333.15
2019-05-10T13:38:58.352Z,304.55
2019-05-10T13:41:26.731Z,332.95
2019-05-10T13:43:58.758Z,301.42
2019-05-10T13:46:25.236Z,355.13
2019-05-10T13:52:20.589Z,338.23
2019-05-10T13:54:48.899Z,290.77
2019-05-10T13:57:17.278Z,311.27
2019-05-10T13:59:49.083Z,309.30
2019-05-10T14:05:32.377Z,321.27
2019-05-10T14:08:00.630Z,305.27
2019-05-10T14:10:29.081Z,331.73
2019-05-10T14:13:02.643Z,318.33
2019-05-10T14:15:27.236Z,345.20
2019-05-10T14:17:55.510Z,311.07
2019-05-10T14:20:27.566Z,328.13
2019-05-10T14:22:58.351Z,325.47
2019-05-10T14:25:29.622Z,336.37
2019-05-10T14:27:55.911Z,317.73
2019-05-10T14:30:24.303Z,329.30
2019-05-10T14:32:52.539Z,302.20
2019-05-10T14:35:22.674Z,340.17
2019-05-10T14:37:50.882Z,267.05
2019-05-10T14:43:34.873Z,348.62
2019-05-10T14:46:03.203Z,298.05
2019-05-10T14:48:35.272Z,324.58
2019-05-10T14:54:17.479Z,339.25
2019-05-10T14:56:45.881Z,307.25
2019-05-10T15:02:22.876Z,328.70
2019-05-10T15:08:04.209Z,303.80
2019-05-10T15:13:48.129Z,325.27
2019-05-10T15:19:32.866Z,316.23
2019-05-10T15:25:06.088Z,293.57
2019-05-10T15:27:34.667Z,321.40
2019-05-10T15:30:05.999Z,301.62
2019-05-10T15:32:33.970Z,299.60
2019-05-10T15:35:07.154Z,315.30
2019-05-10T15:37:32.211Z,310.30
2019-05-10T15:40:05.673Z,310.75
2019-05-10T15:42:35.982Z,320.43
2019-05-10T15:45:05.232Z,329.03
2019-05-10T15:47:30.850Z,322.93
2019-05-10T15:49:59.994Z,326.60
2019-05-10T15:52:29.176Z,342.75
2019-05-10T15:54:57.494Z,327.27
2019-05-10T15:57:25.747Z,310.25
2019-05-10T15:59:56.589Z,276.18
2019-05-10T16:02:24.084Z,77.17
2019-05-10T16:04:52.541Z,278.85
2019-05-10T16:07:20.914Z,324.25
2019-05-10T16:09:49.914Z,304.20
2019-05-10T16:12:19.219Z,335.98
2019-05-10T16:14:47.631Z,311.40
2019-05-10T16:17:17.520Z,314.93
2019-05-10T16:19:50.989Z,330.07
2019-05-10T16:22:17.161Z,328.55
2019-05-10T16:24:45.480Z,314.70
2019-05-10T16:27:13.851Z,314.63
2019-05-10T16:29:42.159Z,326.52
2019-05-10T16:32:10.495Z,301.05
2019-05-10T16:34:39.030Z,331.52
2019-05-10T16:37:07.454Z,321.60
2019-05-10T16:39:35.723Z,311.37
2019-05-10T16:42:04.060Z,294.80
2019-05-10T16:44:32.481Z,318.20
2019-05-10T16:47:00.769Z,320.60
2019-05-10T16:49:29.122Z,330.18
2019-05-10T16:51:57.323Z,282.62
2019-05-10T16:54:27.384Z,292.13
2019-05-10T16:56:59.594Z,301.07
2019-05-10T16:59:29.660Z,319.82
2019-05-10T17:02:03.161Z,291.40
2019-05-10T17:04:25.938Z,317.40
2019-05-10T17:06:56.565Z,307.65
2019-05-10T17:09:24.154Z,314.32
2019-05-10T17:11:52.631Z,295.57
2019-05-10T17:14:20.875Z,325.73
2019-05-10T17:20:13.712Z,308.00
2019-05-10T17:25:53.918Z,302.62
2019-05-10T17:28:22.157Z,339.98
2019-05-10T17:30:50.483Z,333.23
2019-05-10T17:33:18.994Z,262.48
2019-05-10T17:35:47.520Z,277.90
2019-05-10T17:38:16.295Z,306.50
2019-05-10T17:40:47.560Z,308.17
2019-05-10T17:43:20.654Z,335.40
2019-05-10T17:49:01.586Z,305.93
2019-05-10T17:51:30.061Z,323.80
2019-05-10T17:57:16.734Z,325.53
2019-05-10T18:02:51.659Z,322.83
2019-05-10T18:08:23.843Z,346.93
2019-05-10T18:10:57.382Z,313.77
2019-05-10T18:13:22.271Z,331.67
2019-05-10T18:19:05.744Z,318.97
2019-05-10T18:21:34.157Z,292.60
2019-05-10T18:27:07.292Z,335.20
2019-05-10T18:32:51.264Z,313.40
2019-05-10T18:35:19.652Z,326.70
2019-05-10T18:37:53.713Z,309.50
2019-05-10T18:40:25.217Z,331.07
2019-05-10T18:42:57.676Z,318.17
2019-05-10T18:45:23.313Z,319.37
2019-05-10T18:51:09.101Z,313.80
2019-05-10T18:56:53.485Z,314.73
2019-05-10T18:59:21.701Z,279.83
2019-05-10T19:05:05.841Z,314.80
2019-05-10T19:10:38.251Z,317.53
2019-05-10T19:16:26.152Z,319.57
2019-05-10T19:22:10.473Z,315.10
2019-05-10T19:24:39.741Z,304.37
2019-05-10T19:27:09.305Z,300.97
2019-05-10T19:29:38.732Z,322.37
2019-05-10T19:35:24.447Z,326.20
2019-05-10T19:41:08.722Z,294.43
2019-05-10T19:43:37.124Z,312.70
2019-05-10T19:49:21.346Z,339.13
2019-05-10T19:55:19.368Z,324.73
2019-05-10T19:57:52.882Z,312.83
2019-05-10T20:03:20.707Z,329.53
2019-05-10T20:05:49.302Z,181.13
2019-05-10T20:11:22.064Z,320.20
2019-05-10T20:17:06.445Z,306.43
2019-05-10T20:19:34.805Z,308.33
2019-05-10T20:22:05.209Z,318.23
2019-05-10T20:24:33.515Z,309.93
2019-05-10T20:27:01.823Z,295.60
2019-05-10T20:29:30.318Z,296.77
2019-05-10T20:32:00.127Z,311.87
2019-05-10T20:34:31.561Z,335.80
2019-05-10T20:36:59.771Z,305.03
2019-05-10T20:39:28.071Z,320.07
2019-05-10T20:41:57.071Z,286.00
2019-05-10T20:44:25.292Z,287.83
2019-05-10T20:50:13.878Z,322.23
2019-05-10T20:56:32.773Z,274.27
2019-05-10T20:59:09.153Z,238.77
2019-05-10T21:04:54.875Z,101.07
2019-05-10T21:10:28.421Z,120.63
2019-05-10T21:12:57.097Z,99.73
2019-05-10T21:15:25.255Z,110.17
2019-05-10T21:17:53.520Z,88.93
2019-05-10T21:20:21.892Z,119.83
2019-05-10T21:22:58.873Z,90.63
2019-05-10T21:25:29.746Z,114.47
2019-05-10T21:27:58.124Z,104.03
2019-05-10T21:30:34.084Z,113.33
2019-05-10T21:33:02.367Z,95.10
2019-05-10T21:38:46.445Z,177.03
2019-05-10T21:41:14.880Z,177.13
2019-05-10T21:43:43.152Z,189.03
2019-05-10T21:46:11.419Z,164.37
2019-05-10T21:51:55.759Z,133.30
2019-05-10T21:57:39.214Z,205.07
2019-05-10T22:00:09.325Z,160.90
2019-05-10T22:02:39.448Z,180.37
2019-05-10T22:08:12.771Z,171.07
2019-05-10T22:10:41.018Z,195.40
2019-05-10T22:16:26.251Z,178.70
2019-05-10T22:18:55.991Z,223.73
2019-05-10T22:24:40.192Z,145.70
2019-05-10T22:30:24.651Z,185.50
2019-05-10T22:36:08.291Z,222.47
2019-05-10T22:41:53.067Z,219.67
2019-05-10T22:44:21.656Z,194.63
2019-05-10T22:46:49.991Z,216.93
2019-05-10T22:49:18.237Z,256.93
2019-05-10T22:55:03.184Z,248.77
2019-05-10T23:00:47.235Z,225.30
2019-05-10T23:03:15.748Z,218.17
2019-05-10T23:05:43.987Z,203.00
2019-05-10T23:11:17.087Z,207.47
2019-05-10T23:13:45.478Z,201.23
2019-05-10T23:19:28.708Z,108.57
2019-05-10T23:25:13.100Z,189.60
2019-05-10T23:30:57.775Z,200.37
2019-05-10T23:36:43.201Z,164.03
2019-05-10T23:39:11.479Z,153.83
2019-05-10T23:44:44.331Z,74.43
2019-05-10T23:47:12.751Z,84.40
2019-05-10T23:49:41.338Z,72.43
2019-05-10T23:52:09.670Z,41.67
2019-05-10T23:57:41.690Z,76.73
